KACK/ACK METAR and TAF weather

Enter ICAO airport designator
Station Type Date Time Source
KACK METAR 2019/04/19 21:53 UTC NOAA

KACK 192153Z 17014KT 4SM BR SCT035 BKN045 OVC050 12/11 A2992 RMK AO2 SLP131 T01170106


Station Type Date Time Source
KACK Decoded METAR 2019/04/19 21:53 UTC NOAA

NANTUCKET MEMORIAL AIRPORT, MA, United States (KACK) 41-15N 70-04W 16M
Apr 19, 2019 - 05:53 PM EDT / 2019.04.19 2153 UTC
Wind: from the S (170 degrees) at 16 MPH (14 KT):0
Visibility: 4 mile(s):0
Sky conditions: overcast
Weather: mist
Temperature: 53.1 F (11.7 C)
Dew Point: 51.1 F (10.6 C)
Relative Humidity: 92%
Pressure (altimeter): 29.92 in. Hg (1013 hPa)
ob: KACK 192153Z 17014KT 4SM BR SCT035 BKN045 OVC050 12/11 A2992 RMK AO2 SLP131 T01170106
cycle: 22

Station Type Date Time Source
KACK TAF 2019/04/19 21:58 UTC NOAA

TAF
AMD KACK 192058Z 1921/2018 19019KT 5SM BR SCT010 OVC035 WS020/22055KT
FM192300 19018G26KT 2SM BR BKN008 OVC015 WS020/21055KT
FM200300 19019G28KT 1/2SM FG OVC003 WS020/20055KT
FM200600 18020G30KT 3/4SM BR OVC003 WS020/20060KT
FM201100 18020G30KT 1SM BR VCSH OVC008 WS020/20060KT

Example: see airport list